Terminal Aerodrome Forecast
Issued by NWS Sioux Falls, SD

Home | Current Version | Previous Version | Text Only | Print | Product List | Glossary Off
Versions: 1 2 3 4 5 6 7 8 9 10 11 12 13 14 15 16 17 18 19

230
FTUS43 KFSD 282320
TAFFSD
TAF
KFSD 282320Z 2900/2924 03010KT P6SM OVC012
     FM290200 04007KT P6SM OVC020
     FM290800 05004KT P6SM OVC015
     FM291100 05005KT 5SM BR OVC007
     FM291500 06009KT P6SM OVC012
     FM291900 06010KT P6SM OVC035=

USA.gov is the U.S. government's official web portal to all federal, state and local government web resources and services.